createdAt,value
2022-12-31T00:00:17.372Z,51.99
2022-12-31T00:02:44.768Z,51.77
2022-12-31T00:05:12.091Z,51.90
2022-12-31T00:10:06.171Z,51.72
2022-12-31T00:12:33.434Z,50.76
2022-12-31T00:15:02.230Z,51.62
2022-12-31T00:17:30.069Z,50.88
2022-12-31T00:19:57.559Z,50.97
2022-12-31T00:22:24.738Z,51.08
2022-12-31T00:24:52.135Z,50.90
2022-12-31T00:27:19.435Z,51.21
2022-12-31T00:29:46.672Z,51.25
2022-12-31T00:32:15.373Z,50.87
2022-12-31T00:34:42.516Z,51.61
2022-12-31T00:37:09.649Z,50.75
2022-12-31T00:39:36.750Z,51.27
2022-12-31T00:42:04.316Z,50.83
2022-12-31T00:44:31.593Z,51.04
2022-12-31T00:46:58.914Z,50.63
2022-12-31T00:49:27.809Z,50.31
2022-12-31T00:51:55.130Z,51.17
2022-12-31T00:54:22.335Z,50.84
2022-12-31T00:56:49.550Z,50.76
2022-12-31T00:59:16.795Z,50.80
2022-12-31T01:01:44.247Z,51.11
2022-12-31T01:04:14.049Z,51.33
2022-12-31T01:06:43.692Z,50.94
2022-12-31T01:09:12.362Z,51.39
2022-12-31T01:11:39.771Z,52.66
2022-12-31T01:14:09.391Z,52.38
2022-12-31T01:16:39.868Z,51.40
2022-12-31T01:19:10.314Z,51.21
2022-12-31T01:21:39.619Z,51.27
2022-12-31T01:24:09.989Z,51.15
2022-12-31T01:26:38.248Z,51.14
2022-12-31T01:29:07.126Z,51.00
2022-12-31T01:31:35.794Z,50.61
2022-12-31T01:34:03.611Z,50.76
2022-12-31T01:36:33.456Z,50.25
2022-12-31T01:39:03.788Z,50.83
2022-12-31T01:41:35.011Z,50.54
2022-12-31T01:44:24.035Z,50.41
2022-12-31T01:46:55.997Z,50.83
2022-12-31T01:49:27.148Z,50.72
2022-12-31T01:52:00.793Z,50.74
2022-12-31T01:54:31.993Z,50.44
2022-12-31T01:57:01.610Z,50.62
2022-12-31T01:59:31.768Z,50.70
2022-12-31T02:02:00.581Z,50.36
2022-12-31T02:04:29.467Z,50.13
2022-12-31T02:07:00.797Z,49.98
2022-12-31T02:09:28.538Z,50.57
2022-12-31T02:11:55.653Z,49.95
2022-12-31T02:14:28.913Z,49.81
2022-12-31T02:17:07.885Z,50.48
2022-12-31T02:20:06.474Z,50.46
2022-12-31T02:23:04.099Z,50.33
2022-12-31T02:25:57.313Z,50.17
2022-12-31T02:28:46.879Z,50.05
2022-12-31T02:31:24.294Z,49.69
2022-12-31T02:33:57.599Z,49.76
2022-12-31T02:36:32.456Z,49.34
2022-12-31T02:39:01.053Z,49.74
2022-12-31T02:41:28.192Z,49.59
2022-12-31T02:43:55.277Z,49.82
2022-12-31T02:46:33.139Z,50.11
2022-12-31T02:49:10.952Z,50.12
2022-12-31T02:51:50.232Z,49.71
2022-12-31T02:54:28.693Z,49.96
2022-12-31T02:57:10.458Z,49.91
2022-12-31T02:59:43.853Z,50.07
2022-12-31T03:02:18.896Z,49.48
2022-12-31T03:04:51.594Z,49.93
2022-12-31T03:07:22.480Z,56.88
2022-12-31T03:09:50.237Z,50.00
2022-12-31T03:12:20.343Z,49.14
2022-12-31T03:14:47.741Z,48.19
2022-12-31T03:17:16.406Z,48.61
2022-12-31T03:19:43.602Z,48.62
2022-12-31T03:22:13.264Z,49.09
2022-12-31T03:24:40.390Z,51.86
2022-12-31T03:27:07.479Z,49.82
2022-12-31T03:29:34.630Z,51.42
2022-12-31T03:32:01.862Z,47.94
2022-12-31T03:34:30.463Z,51.82
2022-12-31T03:36:57.573Z,50.54
2022-12-31T03:39:24.699Z,50.63
2022-12-31T03:41:51.876Z,49.49
2022-12-31T03:44:19.014Z,49.28
2022-12-31T03:46:46.152Z,49.39
2022-12-31T03:49:13.360Z,47.03
2022-12-31T03:51:42.027Z,49.15
2022-12-31T03:54:09.193Z,48.07
2022-12-31T03:56:36.383Z,48.40
2022-12-31T03:59:03.562Z,48.85
2022-12-31T04:01:30.879Z,46.76
2022-12-31T04:03:58.339Z,47.86
2022-12-31T04:06:25.706Z,48.05
2022-12-31T04:08:54.287Z,47.75
2022-12-31T04:11:21.537Z,47.61
2022-12-31T04:13:48.706Z,46.82
2022-12-31T04:16:15.912Z,47.33
2022-12-31T04:18:42.974Z,47.88
2022-12-31T04:21:10.164Z,46.89
2022-12-31T04:23:37.312Z,47.62
2022-12-31T04:26:05.956Z,46.65
2022-12-31T04:28:33.116Z,47.10
2022-12-31T04:31:00.194Z,46.72
2022-12-31T04:33:27.294Z,46.37
2022-12-31T04:36:00.120Z,46.06
2022-12-31T04:38:28.949Z,47.70
2022-12-31T04:40:56.881Z,46.71
2022-12-31T04:43:25.535Z,47.08
2022-12-31T04:45:52.673Z,46.80
2022-12-31T04:48:20.095Z,46.01
2022-12-31T04:50:47.538Z,47.31
2022-12-31T04:53:14.717Z,45.79
2022-12-31T04:55:42.246Z,46.46
2022-12-31T04:58:09.441Z,46.73
2022-12-31T05:00:38.095Z,46.95
2022-12-31T05:03:05.267Z,47.62
2022-12-31T05:05:32.465Z,46.76
2022-12-31T05:07:59.615Z,45.62
2022-12-31T05:10:26.768Z,46.90
2022-12-31T05:12:53.912Z,47.27
2022-12-31T05:15:21.033Z,47.87
2022-12-31T05:17:49.859Z,46.88
2022-12-31T05:20:17.115Z,47.07
2022-12-31T05:22:44.254Z,47.02
2022-12-31T05:25:11.309Z,47.46
2022-12-31T05:27:38.532Z,47.48
2022-12-31T05:30:07.018Z,47.23
2022-12-31T05:32:35.039Z,47.01
2022-12-31T05:35:04.431Z,47.09
2022-12-31T05:37:32.230Z,46.64
2022-12-31T05:40:00.101Z,46.15
2022-12-31T05:42:27.324Z,46.78
2022-12-31T05:44:54.575Z,45.58
2022-12-31T05:47:21.951Z,46.95
2022-12-31T05:49:49.072Z,46.50
2022-12-31T05:52:17.970Z,45.54
2022-12-31T05:54:45.105Z,47.05
2022-12-31T05:57:12.208Z,46.81
2022-12-31T05:59:39.328Z,46.85
2022-12-31T06:02:06.480Z,46.50
2022-12-31T06:04:33.480Z,46.50
2022-12-31T06:07:00.543Z,47.14
2022-12-31T06:09:29.044Z,46.91
2022-12-31T06:11:56.211Z,46.52
2022-12-31T06:14:23.573Z,46.56
2022-12-31T06:16:50.675Z,46.98
2022-12-31T06:19:17.889Z,47.42
2022-12-31T06:21:44.943Z,47.73
2022-12-31T06:24:12.025Z,47.32
2022-12-31T06:26:40.540Z,46.08
2022-12-31T06:29:07.724Z,47.01
2022-12-31T06:31:35.017Z,45.63
2022-12-31T06:34:02.401Z,47.18
2022-12-31T06:36:29.865Z,46.66
2022-12-31T06:38:56.990Z,47.39
2022-12-31T06:41:24.101Z,46.65
2022-12-31T06:43:52.644Z,46.53
2022-12-31T06:46:19.824Z,46.50
2022-12-31T06:48:46.879Z,46.65
2022-12-31T06:51:17.475Z,46.65
2022-12-31T06:53:46.312Z,46.37
2022-12-31T06:56:16.245Z,46.72
2022-12-31T06:58:44.379Z,46.15
2022-12-31T07:01:36.514Z,45.51
2022-12-31T07:04:19.685Z,47.12
2022-12-31T07:06:55.746Z,46.56
2022-12-31T07:09:36.534Z,47.63
2022-12-31T07:12:14.401Z,47.85
2022-12-31T07:14:49.546Z,47.13
2022-12-31T07:17:32.288Z,47.51
2022-12-31T07:20:05.400Z,46.65
2022-12-31T07:22:33.545Z,46.61
2022-12-31T07:25:01.670Z,46.87
2022-12-31T07:27:56.194Z,46.48
2022-12-31T07:30:31.732Z,46.67
2022-12-31T07:33:29.653Z,46.71
2022-12-31T07:36:12.131Z,46.99
2022-12-31T07:38:50.243Z,46.46
2022-12-31T07:41:34.600Z,46.16
2022-12-31T07:44:07.871Z,46.47
2022-12-31T07:46:47.859Z,46.33
2022-12-31T07:49:17.382Z,45.58
2022-12-31T07:51:44.911Z,46.11
2022-12-31T07:54:14.150Z,45.62
2022-12-31T07:56:43.196Z,44.88
2022-12-31T07:59:29.558Z,44.10
2022-12-31T08:02:05.527Z,43.35
2022-12-31T08:04:48.230Z,41.46
2022-12-31T08:07:26.896Z,41.20
2022-12-31T08:10:03.884Z,40.22
2022-12-31T08:12:36.044Z,39.72
2022-12-31T08:15:11.742Z,39.02
2022-12-31T08:17:39.334Z,38.19
2022-12-31T08:20:13.526Z,38.05
2022-12-31T08:23:05.256Z,39.29
2022-12-31T08:25:47.617Z,38.23
2022-12-31T08:28:26.116Z,40.30
2022-12-31T08:31:01.397Z,39.45
2022-12-31T08:33:39.103Z,41.40
2022-12-31T08:36:18.119Z,41.97
2022-12-31T08:38:55.125Z,40.72
2022-12-31T08:41:29.829Z,40.69
2022-12-31T08:44:10.517Z,42.25
2022-12-31T08:46:48.698Z,42.69
2022-12-31T08:49:16.467Z,41.68
2022-12-31T08:51:45.606Z,41.07
2022-12-31T08:54:14.135Z,42.82
2022-12-31T08:56:50.778Z,41.76
2022-12-31T08:59:36.002Z,43.55
2022-12-31T09:02:29.384Z,42.09
2022-12-31T09:05:08.891Z,42.41
2022-12-31T09:07:41.408Z,41.22
2022-12-31T09:10:19.365Z,41.43
2022-12-31T09:12:59.296Z,42.73
2022-12-31T09:15:33.900Z,42.59
2022-12-31T09:18:01.998Z,42.30
2022-12-31T09:20:42.757Z,42.25
2022-12-31T09:23:13.166Z,41.38
2022-12-31T09:25:54.477Z,41.92
2022-12-31T09:28:39.708Z,41.63
2022-12-31T09:31:17.522Z,42.54
2022-12-31T09:33:55.575Z,40.56
2022-12-31T09:36:32.320Z,42.50
2022-12-31T09:39:13.184Z,41.61
2022-12-31T09:42:10.319Z,41.22
2022-12-31T09:45:19.815Z,40.89
2022-12-31T09:48:28.067Z,40.49
2022-12-31T09:51:12.715Z,40.96
2022-12-31T09:53:54.081Z,40.50
2022-12-31T09:56:29.356Z,40.34
2022-12-31T09:59:05.708Z,39.35
2022-12-31T10:01:49.565Z,40.41
2022-12-31T10:04:49.166Z,39.72
2022-12-31T10:07:36.813Z,40.15
2022-12-31T10:10:13.478Z,38.53
2022-12-31T10:13:13.198Z,40.08
2022-12-31T10:16:05.617Z,39.84
2022-12-31T10:18:54.661Z,40.31
2022-12-31T10:21:46.469Z,41.30
2022-12-31T10:24:48.031Z,41.94
2022-12-31T10:27:28.696Z,41.28
2022-12-31T10:30:12.033Z,41.89
2022-12-31T10:32:44.150Z,39.83
2022-12-31T10:35:29.302Z,40.71
2022-12-31T10:38:14.550Z,42.40
2022-12-31T10:41:24.038Z,42.36
2022-12-31T10:44:38.474Z,41.70
2022-12-31T10:47:40.032Z,41.42
2022-12-31T10:50:44.470Z,42.06
2022-12-31T10:53:44.159Z,41.57
2022-12-31T10:56:50.870Z,41.51
2022-12-31T11:00:01.872Z,40.11
2022-12-31T11:03:06.891Z,41.47
2022-12-31T11:06:18.254Z,42.50
2022-12-31T11:09:27.478Z,41.13
2022-12-31T11:12:10.680Z,42.27
2022-12-31T11:15:03.641Z,42.33
2022-12-31T11:17:53.883Z,42.05
2022-12-31T11:20:42.912Z,40.66
2022-12-31T11:23:30.634Z,42.68
2022-12-31T11:26:12.065Z,43.07
2022-12-31T11:29:05.043Z,42.84
2022-12-31T11:31:50.509Z,42.17
2022-12-31T11:34:49.780Z,41.96
2022-12-31T11:37:35.284Z,43.01
2022-12-31T11:40:30.372Z,40.67
2022-12-31T11:43:01.983Z,42.63
2022-12-31T11:45:57.414Z,42.53
2022-12-31T11:48:36.391Z,41.73
2022-12-31T11:51:33.130Z,42.11
2022-12-31T11:54:35.324Z,42.56
2022-12-31T11:57:17.445Z,42.89
2022-12-31T11:59:45.091Z,42.03
2022-12-31T12:02:25.976Z,42.66
2022-12-31T12:04:55.514Z,42.68
2022-12-31T12:07:25.046Z,43.14
2022-12-31T12:09:56.088Z,41.82
2022-12-31T12:12:23.929Z,42.93
2022-12-31T12:14:53.388Z,42.73
2022-12-31T12:17:28.681Z,41.60
2022-12-31T12:19:57.055Z,42.27
2022-12-31T12:22:28.048Z,39.92
2022-12-31T12:24:58.189Z,39.77
2022-12-31T12:27:29.665Z,42.25
2022-12-31T12:29:56.906Z,41.32
2022-12-31T12:32:26.869Z,39.59
2022-12-31T12:34:54.570Z,42.44
2022-12-31T12:37:33.026Z,39.64
2022-12-31T12:40:03.248Z,42.23
2022-12-31T12:42:31.788Z,41.21
2022-12-31T12:45:04.770Z,40.70
2022-12-31T12:47:33.408Z,40.55
2022-12-31T12:50:01.206Z,40.21
2022-12-31T12:52:59.551Z,41.27
2022-12-31T12:55:38.822Z,40.48
2022-12-31T12:58:21.511Z,40.02
2022-12-31T13:01:03.111Z,42.66
2022-12-31T13:04:33.557Z,41.72
2022-12-31T13:07:16.576Z,41.40
2022-12-31T13:10:05.474Z,41.99
2022-12-31T13:13:13.726Z,41.95
2022-12-31T13:15:41.866Z,40.81
2022-12-31T13:18:26.877Z,41.06
2022-12-31T13:21:03.610Z,41.28
2022-12-31T13:23:41.715Z,40.38
2022-12-31T13:26:21.050Z,42.98
2022-12-31T13:28:52.488Z,41.46
2022-12-31T13:31:26.368Z,41.50
2022-12-31T13:34:01.225Z,41.02
2022-12-31T13:36:33.556Z,41.51
2022-12-31T13:39:05.957Z,42.39
2022-12-31T13:41:43.606Z,42.07
2022-12-31T13:44:18.532Z,40.99
2022-12-31T13:46:52.110Z,41.59
2022-12-31T13:49:27.066Z,42.44
2022-12-31T13:52:02.790Z,42.09
2022-12-31T13:54:38.414Z,40.71
2022-12-31T13:57:19.390Z,41.54
2022-12-31T13:59:55.168Z,40.72
2022-12-31T14:02:36.095Z,42.36
2022-12-31T14:05:15.485Z,41.27
2022-12-31T14:07:50.629Z,41.03
2022-12-31T14:10:28.358Z,41.62
2022-12-31T14:13:11.348Z,41.94
2022-12-31T14:15:52.729Z,41.81
2022-12-31T14:18:30.767Z,41.67
2022-12-31T14:21:08.451Z,41.70
2022-12-31T14:23:47.228Z,41.60
2022-12-31T14:26:23.947Z,41.20
2022-12-31T14:29:03.767Z,41.33
2022-12-31T14:32:01.084Z,41.91
2022-12-31T14:34:42.067Z,42.00
2022-12-31T14:37:18.593Z,41.65
2022-12-31T14:39:58.558Z,42.08
2022-12-31T14:42:37.770Z,42.12
2022-12-31T14:45:26.690Z,42.57
2022-12-31T14:48:01.031Z,41.66
2022-12-31T14:50:31.324Z,41.82
2022-12-31T14:53:08.974Z,41.89
2022-12-31T14:55:38.001Z,42.63
2022-12-31T14:58:29.340Z,42.07
2022-12-31T15:01:01.125Z,41.75
2022-12-31T15:03:41.284Z,42.17
2022-12-31T15:06:41.817Z,42.17
2022-12-31T15:09:32.458Z,41.54
2022-12-31T15:12:17.421Z,41.70
2022-12-31T15:15:06.899Z,41.73
2022-12-31T15:17:50.565Z,41.76
2022-12-31T15:20:52.782Z,43.35
2022-12-31T15:23:24.223Z,42.38
2022-12-31T15:25:59.792Z,41.61
2022-12-31T15:28:33.938Z,41.93
2022-12-31T15:31:11.717Z,42.37
2022-12-31T15:33:56.820Z,42.02
2022-12-31T15:36:26.677Z,43.06
2022-12-31T15:39:07.493Z,43.53
2022-12-31T15:41:43.013Z,42.89
2022-12-31T15:44:28.925Z,46.42
2022-12-31T15:47:02.973Z,45.01
2022-12-31T15:49:40.940Z,46.42
2022-12-31T15:52:16.613Z,44.02
2022-12-31T15:54:48.234Z,43.25
2022-12-31T15:57:19.714Z,40.21
2022-12-31T15:59:47.690Z,39.93
2022-12-31T16:02:23.974Z,40.05
2022-12-31T16:04:54.753Z,41.06
2022-12-31T16:07:23.910Z,41.76
2022-12-31T16:09:56.217Z,41.03
2022-12-31T16:12:30.941Z,41.60
2022-12-31T16:15:01.825Z,41.15
2022-12-31T16:17:31.137Z,41.66
2022-12-31T16:20:02.643Z,41.85
2022-12-31T16:22:37.389Z,41.80
2022-12-31T16:27:55.319Z,42.12
2022-12-31T16:30:26.066Z,42.17
2022-12-31T16:33:00.853Z,42.28
2022-12-31T16:35:31.854Z,42.40
2022-12-31T16:38:19.980Z,41.99
2022-12-31T16:41:08.656Z,42.80
2022-12-31T16:43:39.159Z,42.48
2022-12-31T16:46:16.282Z,41.96
2022-12-31T16:48:48.400Z,42.11
2022-12-31T16:51:24.557Z,43.09
2022-12-31T16:53:52.384Z,42.85
2022-12-31T16:56:24.602Z,43.31
2022-12-31T16:59:00.170Z,43.14
2022-12-31T17:01:32.742Z,43.16
2022-12-31T17:04:04.695Z,42.50
2022-12-31T17:06:33.435Z,43.24
2022-12-31T17:09:19.500Z,43.67
2022-12-31T17:11:54.613Z,43.79
2022-12-31T17:14:24.082Z,43.58
2022-12-31T17:17:02.592Z,43.56
2022-12-31T17:19:43.594Z,44.12
2022-12-31T17:22:29.797Z,43.33
2022-12-31T17:25:03.782Z,43.53
2022-12-31T17:27:32.342Z,44.43
2022-12-31T17:30:19.672Z,44.25
2022-12-31T17:32:47.082Z,44.70
2022-12-31T17:35:29.263Z,43.76
2022-12-31T17:38:26.493Z,43.84
2022-12-31T17:41:00.372Z,43.85
2022-12-31T17:43:34.784Z,43.32
2022-12-31T17:46:09.014Z,43.89
2022-12-31T17:48:37.384Z,43.39
2022-12-31T17:51:05.358Z,43.51
2022-12-31T17:53:33.994Z,43.14
2022-12-31T17:56:03.976Z,42.64
2022-12-31T17:58:35.612Z,43.53
2022-12-31T18:01:06.193Z,43.84
2022-12-31T18:03:33.573Z,43.72
2022-12-31T18:06:01.592Z,44.00
2022-12-31T18:08:29.157Z,43.79
2022-12-31T18:10:57.919Z,43.56
2022-12-31T18:13:26.946Z,43.38
2022-12-31T18:15:54.966Z,50.55
2022-12-31T18:18:25.966Z,43.93
2022-12-31T18:20:57.772Z,44.23
2022-12-31T18:23:29.540Z,44.05
2022-12-31T18:25:58.324Z,44.55
2022-12-31T18:28:25.455Z,44.53
2022-12-31T18:30:53.235Z,44.33
2022-12-31T18:33:23.096Z,44.60
2022-12-31T18:36:08.893Z,44.58
2022-12-31T18:38:37.037Z,44.81
2022-12-31T18:41:06.443Z,45.46
2022-12-31T18:43:33.575Z,45.60
2022-12-31T18:46:00.673Z,50.59
2022-12-31T18:48:27.907Z,49.02
2022-12-31T18:50:56.538Z,45.16
2022-12-31T18:53:25.672Z,44.51
2022-12-31T18:55:54.867Z,45.19
2022-12-31T18:58:24.068Z,45.21
2022-12-31T19:00:52.401Z,44.48
2022-12-31T19:03:22.439Z,45.84
2022-12-31T19:05:51.141Z,45.26
2022-12-31T19:08:20.914Z,51.61
2022-12-31T19:10:51.871Z,47.47
2022-12-31T19:13:20.311Z,46.74
2022-12-31T19:15:51.283Z,42.29
2022-12-31T19:18:19.043Z,42.58
2022-12-31T19:20:47.024Z,42.81
2022-12-31T19:23:16.216Z,43.18
2022-12-31T19:25:48.234Z,43.41
2022-12-31T19:28:18.345Z,43.35
2022-12-31T19:30:45.890Z,43.70
2022-12-31T19:33:15.028Z,44.22
2022-12-31T19:35:42.793Z,44.70
2022-12-31T19:38:18.318Z,44.60
2022-12-31T19:40:46.876Z,44.65
2022-12-31T19:43:16.233Z,45.39
2022-12-31T19:45:44.644Z,45.05
2022-12-31T19:48:16.107Z,44.95
2022-12-31T19:50:46.092Z,45.15
2022-12-31T19:53:15.950Z,45.11
2022-12-31T19:55:43.413Z,44.86
2022-12-31T19:58:18.550Z,44.84
2022-12-31T20:00:51.702Z,44.93
2022-12-31T20:03:24.699Z,44.34
2022-12-31T20:06:00.129Z,44.68
2022-12-31T20:08:27.261Z,44.94
2022-12-31T20:10:54.428Z,44.91
2022-12-31T20:13:21.524Z,44.90
2022-12-31T20:15:49.045Z,44.52
2022-12-31T20:18:16.230Z,45.21
2022-12-31T20:20:55.059Z,45.24
2022-12-31T20:23:22.843Z,45.08
2022-12-31T20:25:57.422Z,45.12
2022-12-31T20:28:25.264Z,44.82
2022-12-31T20:30:52.630Z,44.81
2022-12-31T20:33:19.988Z,44.71
2022-12-31T20:35:48.786Z,45.50
2022-12-31T20:38:15.868Z,45.04
2022-12-31T20:40:46.631Z,45.26
2022-12-31T20:43:14.786Z,45.17
2022-12-31T20:45:42.036Z,44.88
2022-12-31T20:48:09.236Z,45.23
2022-12-31T20:50:36.665Z,45.92
2022-12-31T20:53:05.273Z,45.77
2022-12-31T20:55:32.486Z,46.04
2022-12-31T20:57:59.697Z,45.31
2022-12-31T21:00:26.859Z,45.48
2022-12-31T21:03:03.881Z,46.19
2022-12-31T21:05:35.772Z,45.73
2022-12-31T21:08:04.902Z,46.28
2022-12-31T21:10:32.154Z,46.03
2022-12-31T21:12:59.351Z,45.88
2022-12-31T21:15:26.693Z,45.84
2022-12-31T21:17:53.908Z,46.00
2022-12-31T21:20:21.113Z,45.31
2022-12-31T21:22:48.223Z,45.95
2022-12-31T21:25:16.818Z,45.80
2022-12-31T21:27:44.205Z,45.56
2022-12-31T21:30:20.396Z,45.14
2022-12-31T21:32:47.927Z,44.87
2022-12-31T21:35:42.398Z,45.12
2022-12-31T21:38:02.777Z,45.20
2022-12-31T21:40:32.067Z,45.49
2022-12-31T21:42:59.239Z,45.10
2022-12-31T21:45:26.572Z,45.54
2022-12-31T21:47:53.825Z,45.98
2022-12-31T21:50:21.117Z,45.36
2022-12-31T21:52:48.312Z,46.24
2022-12-31T21:55:15.736Z,46.49
2022-12-31T21:58:15.499Z,45.79
2022-12-31T22:00:42.329Z,46.31
2022-12-31T22:03:12.624Z,45.95
2022-12-31T22:05:46.859Z,46.42
2022-12-31T22:08:15.379Z,46.63
2022-12-31T22:10:50.322Z,47.41
2022-12-31T22:13:21.816Z,46.68
2022-12-31T22:15:55.398Z,46.74
2022-12-31T22:18:27.834Z,47.28
2022-12-31T22:21:02.756Z,47.25
2022-12-31T22:23:30.351Z,47.65
2022-12-31T22:25:57.831Z,47.58
2022-12-31T22:28:41.625Z,48.20
2022-12-31T22:31:13.875Z,48.21
2022-12-31T22:33:41.300Z,47.88
2022-12-31T22:36:12.516Z,47.96
2022-12-31T22:38:39.869Z,47.82
2022-12-31T22:41:09.216Z,47.48
2022-12-31T22:43:40.083Z,47.45
2022-12-31T22:46:09.847Z,48.01
2022-12-31T22:48:37.609Z,47.49
2022-12-31T22:51:05.454Z,47.41
2022-12-31T22:53:32.695Z,48.54
2022-12-31T22:55:59.837Z,47.85
2022-12-31T22:58:27.111Z,48.06
2022-12-31T23:00:55.674Z,48.09
2022-12-31T23:03:22.836Z,47.24
2022-12-31T23:05:51.834Z,47.41
2022-12-31T23:08:23.242Z,47.55
2022-12-31T23:10:52.957Z,47.12
2022-12-31T23:13:20.176Z,47.33
2022-12-31T23:15:47.375Z,46.86
2022-12-31T23:18:16.073Z,47.47
2022-12-31T23:20:43.251Z,47.15
2022-12-31T23:23:15.050Z,47.05
2022-12-31T23:25:44.098Z,47.25
2022-12-31T23:28:13.088Z,48.58
2022-12-31T23:30:41.751Z,47.95
2022-12-31T23:33:17.164Z,47.30
2022-12-31T23:35:44.878Z,47.00
2022-12-31T23:38:13.344Z,47.39
2022-12-31T23:40:40.486Z,46.85
2022-12-31T23:43:08.990Z,46.16
2022-12-31T23:45:36.740Z,46.34
2022-12-31T23:48:04.449Z,46.61
2022-12-31T23:50:33.036Z,46.14
2022-12-31T23:53:00.207Z,46.58
2022-12-31T23:55:27.408Z,46.37
2022-12-31T23:57:55.403Z,46.23
